Time;durP1;ratioP1;P1;durP2;ratioP2;P2;SDS_P1;SDS_P2;PMS_P1;PMS_P2;Temp;Humidity;BMP_temperature;BMP_pressure;BME280_temperature;BME280_humidity;BME280_pressure;Samples;Min_cycle;Max_cycle;Signal;HPM_P1;HPM_P2
2021/03/29 00:00:16;;;;;;;1.10;0.40;;;10.80;99.90;;;;;;5014402;28;20472;-73
2021/03/29 00:02:43;;;;;;;0.88;0.20;;;10.90;99.90;;;;;;5014117;28;20090;-73
2021/03/29 00:05:11;;;;;;;1.08;0.28;;;10.90;99.90;;;;;;5014402;28;20046;-73
2021/03/29 00:07:38;;;;;;;0.93;0.10;;;10.90;99.90;;;;;;5014511;28;20046;-73
2021/03/29 00:10:06;;;;;;;0.10;0.00;;;10.90;99.90;;;;;;5014525;28;20181;-73
2021/03/29 00:12:33;;;;;;;0.10;0.10;;;10.90;99.90;;;;;;5014198;28;20069;-73
2021/03/29 00:15:00;;;;;;;0.20;0.13;;;10.90;99.90;;;;;;5014285;28;20107;-73
2021/03/29 00:17:26;;;;;;;1.42;0.15;;;10.90;99.90;;;;;;5014583;28;20405;-73
2021/03/29 00:19:53;;;;;;;0.30;0.10;;;10.90;99.90;;;;;;5014286;28;20118;-73
2021/03/29 00:22:19;;;;;;;0.15;0.10;;;10.90;99.90;;;;;;5014519;28;20053;-73
2021/03/29 00:24:47;;;;;;;0.10;0.10;;;10.90;99.90;;;;;;5014298;28;20140;-73
2021/03/29 00:27:14;;;;;;;0.10;0.10;;;10.90;99.90;;;;;;5014090;28;20477;-73
2021/03/29 00:29:41;;;;;;;1.08;0.10;;;10.90;99.90;;;;;;5014055;28;20046;-73
2021/03/29 00:32:08;;;;;;;0.17;0.05;;;10.90;99.90;;;;;;5013731;28;20061;-73
2021/03/29 00:34:35;;;;;;;0.50;0.10;;;10.90;99.90;;;;;;5014108;28;20462;-71
2021/03/29 00:37:01;;;;;;;0.70;0.10;;;10.90;99.90;;;;;;5014396;28;20432;-71
2021/03/29 00:39:28;;;;;;;1.17;0.30;;;10.90;99.90;;;;;;5013999;28;20099;-70
2021/03/29 00:41:56;;;;;;;0.28;0.10;;;10.90;99.90;;;;;;5014129;28;20046;-72
2021/03/29 00:44:22;;;;;;;0.47;0.10;;;10.90;99.90;;;;;;5014059;28;20058;-71
2021/03/29 00:46:49;;;;;;;0.10;0.10;;;10.90;99.90;;;;;;5014209;28;20394;-71
2021/03/29 00:49:16;;;;;;;0.20;0.10;;;10.90;99.90;;;;;;5014024;28;20060;-70
2021/03/29 00:51:42;;;;;;;0.82;0.13;;;10.90;99.90;;;;;;5014125;28;20459;-71
2021/03/29 00:54:09;;;;;;;0.45;0.10;;;11.00;99.90;;;;;;5017706;28;20061;-71
2021/03/29 00:56:35;;;;;;;0.30;0.10;;;10.90;99.90;;;;;;5017878;28;20359;-71
2021/03/29 00:59:04;;;;;;;0.10;0.10;;;10.90;99.90;;;;;;5017434;28;20050;-70
2021/03/29 01:01:38;;;;;;;2.08;0.20;;;11.00;99.90;;;;;;5017663;28;20049;-71
2021/03/29 01:04:04;;;;;;;0.90;0.10;;;11.00;99.90;;;;;;5017005;28;20108;-70
2021/03/29 01:06:32;;;;;;;0.22;0.10;;;11.00;99.90;;;;;;5017534;28;20139;-71
2021/03/29 01:09:01;;;;;;;0.57;0.30;;;11.00;99.90;;;;;;5017189;28;20050;-71
2021/03/29 01:11:29;;;;;;;0.10;0.10;;;10.90;99.90;;;;;;5017324;28;20054;-71
2021/03/29 01:13:57;;;;;;;0.20;0.10;;;11.00;99.90;;;;;;5017028;28;20046;-71
2021/03/29 01:16:26;;;;;;;1.15;0.22;;;11.00;99.90;;;;;;5017214;28;20053;-71
2021/03/29 01:18:54;;;;;;;0.65;0.15;;;11.00;99.90;;;;;;5017027;28;20045;-71
2021/03/29 01:21:46;;;;;;;0.98;0.32;;;11.00;99.90;;;;;;5017056;28;20050;-71
2021/03/29 01:24:16;;;;;;;0.45;0.20;;;11.00;99.90;;;;;;5017067;28;20133;-71
2021/03/29 01:26:44;;;;;;;0.10;0.10;;;11.00;99.90;;;;;;5017275;28;20064;-71
2021/03/29 01:29:10;;;;;;;0.25;0.10;;;11.00;99.90;;;;;;5016744;28;20056;-71
2021/03/29 01:31:37;;;;;;;1.60;0.10;;;11.00;99.90;;;;;;5016915;28;20482;-71
2021/03/29 01:34:04;;;;;;;2.00;0.60;;;11.00;99.90;;;;;;5016442;28;20053;-71
2021/03/29 01:36:31;;;;;;;0.85;0.30;;;11.00;99.90;;;;;;5016836;28;20421;-71
2021/03/29 01:38:57;;;;;;;0.55;0.20;;;11.00;99.90;;;;;;5017103;28;20042;-71
2021/03/29 01:41:24;;;;;;;1.30;0.73;;;11.00;99.90;;;;;;5016857;28;20084;-71
2021/03/29 01:43:51;;;;;;;0.65;0.30;;;11.00;99.90;;;;;;5017039;28;20050;-71
2021/03/29 01:46:18;;;;;;;0.88;0.20;;;11.00;99.90;;;;;;5016783;28;20065;-71
2021/03/29 01:48:45;;;;;;;1.92;0.47;;;11.00;99.90;;;;;;5016477;28;20046;-71
2021/03/29 01:51:11;;;;;;;0.40;0.30;;;11.00;99.90;;;;;;5016701;28;20150;-71
2021/03/29 01:53:38;;;;;;;2.20;0.30;;;11.00;99.90;;;;;;5016504;28;20482;-71
2021/03/29 01:56:05;;;;;;;0.20;0.20;;;11.00;99.90;;;;;;5016557;28;20060;-71
2021/03/29 01:58:31;;;;;;;0.32;0.20;;;11.00;99.90;;;;;;5016307;28;20454;-71
2021/03/29 02:01:00;;;;;;;0.65;0.10;;;11.00;99.90;;;;;;5016722;28;20091;-71
2021/03/29 02:03:26;;;;;;;0.17;0.10;;;11.00;99.90;;;;;;5015934;28;20060;-71
2021/03/29 02:05:53;;;;;;;0.20;0.20;;;11.00;99.90;;;;;;5015698;28;20360;-71
2021/03/29 02:08:20;;;;;;;0.10;0.10;;;11.00;99.90;;;;;;5016093;28;20127;-72
2021/03/29 02:10:47;;;;;;;0.03;0.03;;;10.90;99.90;;;;;;5016171;28;20042;-71
2021/03/29 02:13:13;;;;;;;0.45;0.10;;;10.90;99.90;;;;;;5016060;28;20057;-71
2021/03/29 02:15:40;;;;;;;1.75;0.10;;;10.90;99.90;;;;;;5016129;28;20046;-72
2021/03/29 02:18:11;;;;;;;0.10;0.10;;;10.90;99.90;;;;;;5016029;28;20052;-72
2021/03/29 02:20:37;;;;;;;0.10;0.10;;;10.90;99.90;;;;;;5015963;28;20056;-71
2021/03/29 02:23:05;;;;;;;0.55;0.10;;;10.90;99.90;;;;;;5016450;28;20068;-71
2021/03/29 02:25:32;;;;;;;0.57;0.20;;;10.80;99.90;;;;;;5015811;28;20057;-71
2021/03/29 02:27:59;;;;;;;1.40;0.13;;;10.90;99.90;;;;;;5015862;28;20064;-71
2021/03/29 02:30:27;;;;;;;0.50;0.20;;;10.80;99.90;;;;;;5015739;28;20057;-71
2021/03/29 02:32:54;;;;;;;1.10;0.10;;;10.90;99.90;;;;;;5015331;28;20062;-72
2021/03/29 02:35:22;;;;;;;0.00;0.00;;;10.90;99.90;;;;;;5015803;28;20049;-71
2021/03/29 02:37:49;;;;;;;0.10;0.10;;;10.90;99.90;;;;;;5015608;28;20045;-72
2021/03/29 02:40:17;;;;;;;0.65;0.10;;;10.90;99.90;;;;;;5015651;28;20049;-72
2021/03/29 02:42:43;;;;;;;0.40;0.08;;;10.80;99.90;;;;;;5015462;28;20057;-72
2021/03/29 02:45:11;;;;;;;2.03;0.10;;;10.80;99.90;;;;;;5015729;28;20382;-72
2021/03/29 02:47:38;;;;;;;0.30;0.10;;;10.80;99.90;;;;;;5015669;28;20049;-72
2021/03/29 02:50:07;;;;;;;0.00;0.00;;;10.80;99.90;;;;;;5015466;28;20054;-72
2021/03/29 02:52:35;;;;;;;0.00;0.00;;;10.80;99.90;;;;;;5015825;28;20106;-72
2021/03/29 02:55:02;;;;;;;0.28;0.10;;;10.80;99.90;;;;;;5015531;28;20053;-72
2021/03/29 02:57:28;;;;;;;0.77;0.10;;;10.80;99.90;;;;;;5015138;28;20390;-72
2021/03/29 02:59:55;;;;;;;1.48;0.10;;;10.80;99.90;;;;;;5015373;28;20085;-71
2021/03/29 03:02:21;;;;;;;0.10;0.00;;;10.80;99.90;;;;;;5015108;28;20049;-72
2021/03/29 03:04:48;;;;;;;1.40;0.20;;;10.80;99.90;;;;;;5015203;28;20050;-72
2021/03/29 03:07:14;;;;;;;0.57;0.10;;;10.80;99.90;;;;;;5015037;28;20110;-72
2021/03/29 03:09:42;;;;;;;0.00;0.00;;;10.80;99.90;;;;;;5014981;28;20046;-72
2021/03/29 03:12:10;;;;;;;0.55;0.10;;;10.80;99.90;;;;;;5014853;28;20467;-72
2021/03/29 03:14:37;;;;;;;0.10;0.10;;;10.80;99.90;;;;;;5015113;28;20081;-72
2021/03/29 03:17:04;;;;;;;0.08;0.05;;;10.80;99.90;;;;;;5013845;28;20064;-72
2021/03/29 03:19:30;;;;;;;0.10;0.05;;;10.80;99.90;;;;;;5015305;28;20128;-72
2021/03/29 03:21:57;;;;;;;0.10;0.03;;;10.80;99.90;;;;;;5014882;28;20054;-72
2021/03/29 03:24:32;;;;;;;0.30;0.10;;;10.80;99.90;;;;;;5014870;28;20053;-72
2021/03/29 03:27:05;;;;;;;1.63;0.13;;;10.80;99.90;;;;;;5014851;28;20092;-72
2021/03/29 03:29:33;;;;;;;0.25;0.10;;;10.80;99.90;;;;;;5014902;28;20501;-72
2021/03/29 03:31:59;;;;;;;0.08;0.00;;;10.80;99.90;;;;;;5014306;28;20057;-72
2021/03/29 03:34:26;;;;;;;0.00;0.00;;;10.80;99.90;;;;;;5015301;28;20053;-72
2021/03/29 03:36:53;;;;;;;0.25;0.15;;;10.80;99.90;;;;;;5014905;28;20057;-72
2021/03/29 03:39:20;;;;;;;0.20;0.10;;;10.80;99.90;;;;;;5014739;28;20096;-72
2021/03/29 03:41:46;;;;;;;0.35;0.10;;;10.80;99.90;;;;;;5014890;28;20049;-73
2021/03/29 03:44:14;;;;;;;0.85;0.10;;;10.80;99.90;;;;;;5014895;28;20058;-73
2021/03/29 03:46:41;;;;;;;0.00;0.00;;;10.80;99.90;;;;;;5014726;28;20050;-73
2021/03/29 03:49:10;;;;;;;0.05;0.05;;;10.80;99.90;;;;;;5014460;28;20054;-72
2021/03/29 03:51:36;;;;;;;0.10;0.10;;;10.90;99.90;;;;;;5014791;28;20382;-72
2021/03/29 03:54:04;;;;;;;0.00;0.00;;;10.80;99.90;;;;;;5014532;28;20115;-72
2021/03/29 03:56:32;;;;;;;0.00;0.00;;;10.80;99.90;;;;;;5014515;28;20050;-72
2021/03/29 03:58:58;;;;;;;0.17;0.00;;;10.90;99.90;;;;;;5014498;28;20045;-72
2021/03/29 04:01:26;;;;;;;0.45;0.05;;;10.90;99.90;;;;;;5014477;28;20557;-74
2021/03/29 04:03:52;;;;;;;0.00;0.00;;;10.90;99.90;;;;;;5014234;28;20050;-73
2021/03/29 04:06:20;;;;;;;3.05;0.30;;;10.90;99.90;;;;;;5014305;28;20049;-73
2021/03/29 04:08:47;;;;;;;0.25;0.10;;;10.90;99.90;;;;;;5014361;28;20455;-73
2021/03/29 04:11:14;;;;;;;0.10;0.10;;;10.90;99.90;;;;;;5014533;28;20467;-73
2021/03/29 04:13:40;;;;;;;0.85;0.10;;;10.90;99.90;;;;;;5014297;28;20459;-73
2021/03/29 04:16:08;;;;;;;1.75;0.10;;;11.00;99.90;;;;;;5014118;28;20375;-73
2021/03/29 04:18:35;;;;;;;0.10;0.00;;;11.00;99.90;;;;;;5014490;28;20054;-73
2021/03/29 04:21:02;;;;;;;0.00;0.00;;;11.00;99.90;;;;;;5014194;28;20057;-73
2021/03/29 04:23:30;;;;;;;0.25;0.08;;;11.00;99.90;;;;;;5014212;28;20046;-73
2021/03/29 04:25:56;;;;;;;0.50;0.10;;;11.00;99.90;;;;;;5014127;28;20054;-72
2021/03/29 04:28:23;;;;;;;1.45;0.10;;;11.00;99.90;;;;;;5016818;28;20049;-74
2021/03/29 04:30:50;;;;;;;0.10;0.10;;;11.00;99.90;;;;;;5018071;28;20054;-73
2021/03/29 04:33:18;;;;;;;0.50;0.10;;;11.00;99.90;;;;;;5017467;28;20072;-72
2021/03/29 04:35:46;;;;;;;0.15;0.10;;;11.00;99.90;;;;;;5017908;28;20138;-73
2021/03/29 04:38:12;;;;;;;0.30;0.13;;;11.00;99.90;;;;;;5017721;28;20054;-72
2021/03/29 04:40:39;;;;;;;0.20;0.00;;;11.00;99.90;;;;;;5018198;28;20057;-72
2021/03/29 04:43:05;;;;;;;2.47;0.20;;;11.00;99.90;;;;;;5018028;28;20049;-72
2021/03/29 04:45:32;;;;;;;1.38;0.00;;;11.00;99.90;;;;;;5017786;28;20057;-72
2021/03/29 04:47:58;;;;;;;0.50;0.10;;;11.00;99.90;;;;;;5017740;28;20053;-72
2021/03/29 04:50:25;;;;;;;0.25;0.10;;;11.00;99.90;;;;;;5017854;28;20060;-72
2021/03/29 04:52:53;;;;;;;0.43;0.10;;;11.00;99.90;;;;;;5018032;28;20466;-72
2021/03/29 04:55:20;;;;;;;1.15;0.00;;;11.00;99.90;;;;;;5017836;28;20058;-72
2021/03/29 04:57:46;;;;;;;0.15;0.10;;;11.00;99.90;;;;;;5017664;28;20056;-72
2021/03/29 05:00:14;;;;;;;0.10;0.08;;;11.00;99.90;;;;;;5017432;28;20064;-73
2021/03/29 05:02:40;;;;;;;0.10;0.03;;;11.00;99.90;;;;;;5017108;28;20053;-72
2021/03/29 05:05:08;;;;;;;1.85;0.20;;;11.00;99.90;;;;;;5017465;28;20056;-73
2021/03/29 05:07:34;;;;;;;0.82;0.00;;;11.10;99.90;;;;;;5017615;28;20057;-72
2021/03/29 05:10:03;;;;;;;0.20;0.10;;;11.00;99.90;;;;;;5017137;28;20046;-73
2021/03/29 05:12:29;;;;;;;0.45;0.10;;;11.00;99.90;;;;;;5017283;28;20386;-72
2021/03/29 05:14:56;;;;;;;0.20;0.00;;;11.10;99.90;;;;;;5017426;28;20057;-72
2021/03/29 05:17:22;;;;;;;0.30;0.30;;;11.10;99.90;;;;;;5017178;28;20478;-72
2021/03/29 05:19:49;;;;;;;0.68;0.10;;;11.10;99.90;;;;;;5017287;28;20104;-72
2021/03/29 05:22:15;;;;;;;0.15;0.15;;;11.00;99.90;;;;;;5017072;28;20053;-72
2021/03/29 05:24:42;;;;;;;0.10;0.10;;;11.00;99.90;;;;;;5017036;28;20481;-72
2021/03/29 05:27:10;;;;;;;0.13;0.10;;;11.00;99.90;;;;;;5017064;28;20563;-72
2021/03/29 05:29:43;;;;;;;0.10;0.10;;;11.10;99.90;;;;;;5017016;28;20049;-72
2021/03/29 05:32:16;;;;;;;2.90;0.30;;;11.10;99.90;;;;;;5016317;28;20482;-73
2021/03/29 05:34:43;;;;;;;0.10;0.10;;;11.10;99.90;;;;;;5016962;28;20104;-73
2021/03/29 05:37:10;;;;;;;0.20;0.10;;;11.10;99.90;;;;;;5016990;28;20045;-73
2021/03/29 05:39:37;;;;;;;0.22;0.10;;;11.00;99.90;;;;;;5015646;28;20045;-73
2021/03/29 05:42:04;;;;;;;0.30;0.10;;;11.10;99.90;;;;;;5016748;28;20058;-72
2021/03/29 05:44:32;;;;;;;1.58;0.10;;;11.00;99.90;;;;;;5016694;28;20058;-72
2021/03/29 05:46:59;;;;;;;0.40;0.10;;;11.00;99.90;;;;;;5016765;28;20053;-73
2021/03/29 05:49:25;;;;;;;1.40;0.10;;;11.00;99.90;;;;;;5016684;28;20061;-73
2021/03/29 05:51:52;;;;;;;0.40;0.13;;;11.10;99.90;;;;;;5016826;28;20088;-73
2021/03/29 05:54:18;;;;;;;0.28;0.10;;;11.00;99.90;;;;;;5016623;28;20119;-73
2021/03/29 05:56:46;;;;;;;0.20;0.17;;;11.10;99.90;;;;;;5016338;28;20061;-73
2021/03/29 05:59:16;;;;;;;0.57;0.20;;;11.10;99.90;;;;;;5016670;28;20498;-72
2021/03/29 06:01:47;;;;;;;0.55;0.28;;;11.10;99.90;;;;;;5016224;28;20054;-72
2021/03/29 06:04:15;;;;;;;0.70;0.20;;;11.10;99.90;;;;;;5016179;28;20054;-73
2021/03/29 06:06:41;;;;;;;2.58;0.32;;;11.20;99.90;;;;;;5016161;28;20054;-72
2021/03/29 06:09:08;;;;;;;0.40;0.10;;;11.20;99.90;;;;;;5016053;28;20049;-72
2021/03/29 06:11:35;;;;;;;0.40;0.13;;;11.20;99.90;;;;;;5016406;28;20624;-72
2021/03/29 06:14:15;;;;;;;0.93;0.20;;;11.30;99.90;;;;;;5016138;28;20050;-72
2021/03/29 06:16:59;;;;;;;0.10;0.10;;;11.30;99.90;;;;;;5016536;28;20054;-72
2021/03/29 06:19:36;;;;;;;1.88;0.32;;;11.40;99.90;;;;;;5016045;28;20050;-75
2021/03/29 06:22:07;;;;;;;2.10;0.30;;;11.40;99.90;;;;;;5015915;28;20065;-74
2021/03/29 06:25:02;;;;;;;3.42;0.40;;;11.40;99.90;;;;;;5016029;28;20127;-74
2021/03/29 06:27:30;;;;;;;2.38;0.32;;;11.50;99.90;;;;;;5015982;28;20050;-75
2021/03/29 06:30:22;;;;;;;0.52;0.52;;;11.50;99.90;;;;;;5015655;28;20060;-72
2021/03/29 06:33:08;;;;;;;1.35;0.30;;;11.50;99.90;;;;;;5015277;28;20132;-72
2021/03/29 06:35:37;;;;;;;1.13;0.20;;;11.60;99.90;;;;;;5015763;28;20058;-72
2021/03/29 06:38:12;;;;;;;1.27;0.15;;;11.60;99.90;;;;;;5015580;28;20060;-72
2021/03/29 06:40:39;;;;;;;1.15;0.15;;;11.70;99.90;;;;;;5015612;28;20092;-73
2021/03/29 06:43:19;;;;;;;0.77;0.52;;;11.70;99.90;;;;;;5015530;28;20054;-73
2021/03/29 06:45:46;;;;;;;2.42;0.20;;;11.80;99.90;;;;;;5015702;28;20060;-73
2021/03/29 06:48:24;;;;;;;2.08;0.20;;;11.90;99.90;;;;;;5015400;28;20446;-72
2021/03/29 06:51:08;;;;;;;0.40;0.20;;;11.90;99.90;;;;;;5015261;28;20136;-73
2021/03/29 06:53:34;;;;;;;2.38;0.17;;;12.00;99.90;;;;;;5015868;28;20075;-72
2021/03/29 06:56:26;;;;;;;0.40;0.20;;;12.00;99.90;;;;;;5015329;28;20053;-73
2021/03/29 06:58:54;;;;;;;0.30;0.10;;;12.10;99.90;;;;;;5015380;28;20060;-72
2021/03/29 07:01:21;;;;;;;0.10;0.10;;;12.10;99.90;;;;;;5015567;28;20077;-72
2021/03/29 07:03:50;;;;;;;0.45;0.20;;;12.20;99.90;;;;;;5014898;28;20534;-72
2021/03/29 07:06:17;;;;;;;0.10;0.10;;;12.20;99.90;;;;;;5014899;28;20111;-72
2021/03/29 07:08:44;;;;;;;0.63;0.10;;;12.20;99.90;;;;;;5015378;28;20053;-73
2021/03/29 07:11:12;;;;;;;0.65;0.10;;;12.30;99.90;;;;;;5015207;28;20057;-72
2021/03/29 07:13:40;;;;;;;0.65;0.20;;;12.40;99.90;;;;;;5015245;28;20046;-72
2021/03/29 07:16:07;;;;;;;0.55;0.10;;;12.30;99.90;;;;;;5014845;28;20390;-72
2021/03/29 07:18:34;;;;;;;0.45;0.30;;;12.70;99.90;;;;;;5014908;28;20046;-72
2021/03/29 07:21:02;;;;;;;1.42;0.45;;;12.70;99.90;;;;;;5014799;28;20060;-72
2021/03/29 07:23:29;;;;;;;0.95;0.20;;;13.10;99.90;;;;;;5015257;28;20054;-72
2021/03/29 07:25:56;;;;;;;1.92;0.30;;;13.80;99.90;;;;;;5014945;28;20356;-72
2021/03/29 07:28:23;;;;;;;1.27;0.30;;;13.90;99.90;;;;;;5014897;28;20045;-73
2021/03/29 07:30:50;;;;;;;2.13;0.85;;;14.70;99.90;;;;;;5014535;28;20056;-73
2021/03/29 07:33:17;;;;;;;1.95;0.30;;;15.20;99.90;;;;;;5014308;28;20073;-73
2021/03/29 07:35:45;;;;;;;1.88;0.30;;;15.10;99.90;;;;;;5014959;28;20381;-73
2021/03/29 07:38:12;;;;;;;0.88;0.20;;;14.90;99.90;;;;;;5014570;28;20054;-72
2021/03/29 07:40:41;;;;;;;0.85;0.75;;;14.60;99.90;;;;;;5014685;28;20120;-73
2021/03/29 07:43:09;;;;;;;1.35;0.30;;;14.40;99.90;;;;;;5014619;28;20485;-72
2021/03/29 07:45:44;;;;;;;2.15;0.40;;;14.20;99.90;;;;;;5014832;28;20046;-73
2021/03/29 07:48:10;;;;;;;0.47;0.10;;;14.10;99.90;;;;;;5014325;28;20057;-72
2021/03/29 07:50:49;;;;;;;0.60;0.20;;;13.90;99.90;;;;;;5014520;28;20060;-72
2021/03/29 07:53:20;;;;;;;3.00;0.40;;;13.70;99.90;;;;;;5014768;28;20104;-72
2021/03/29 07:55:48;;;;;;;1.13;0.30;;;13.60;99.90;;;;;;5014581;28;20115;-72
2021/03/29 07:58:15;;;;;;;0.38;0.17;;;13.60;99.90;;;;;;5014471;28;20053;-72
2021/03/29 08:00:43;;;;;;;1.48;0.20;;;13.60;99.90;;;;;;5014680;28;20122;-72
2021/03/29 08:03:36;;;;;;;2.55;0.40;;;13.60;99.90;;;;;;5016619;28;20140;-72
2021/03/29 08:06:02;;;;;;;1.00;0.30;;;13.60;99.90;;;;;;5018392;28;20053;-73
2021/03/29 08:08:39;;;;;;;3.00;0.47;;;13.50;99.90;;;;;;5018534;28;20049;-73
2021/03/29 08:11:08;;;;;;;1.23;0.35;;;13.30;99.90;;;;;;5018296;28;20056;-74
2021/03/29 08:13:35;;;;;;;2.15;0.43;;;13.30;99.90;;;;;;5018637;28;20057;-73
2021/03/29 08:16:02;;;;;;;1.73;0.22;;;13.30;99.90;;;;;;5018555;28;20205;-74
2021/03/29 08:18:28;;;;;;;1.92;0.35;;;13.20;99.90;;;;;;5018244;28;20462;-75
2021/03/29 08:20:56;;;;;;;1.35;0.30;;;13.30;99.90;;;;;;5018209;28;20359;-74
2021/03/29 08:23:27;;;;;;;1.20;0.40;;;13.20;99.90;;;;;;5017505;28;20057;-74
2021/03/29 08:26:08;;;;;;;2.60;0.75;;;13.30;99.90;;;;;;5018090;28;20383;-73
2021/03/29 08:29:20;;;;;;;2.33;0.65;;;13.30;99.90;;;;;;5018055;28;20107;-74
2021/03/29 08:32:10;;;;;;;2.40;0.63;;;13.30;99.90;;;;;;5017808;28;20065;-75
2021/03/29 08:34:38;;;;;;;3.95;0.90;;;13.30;99.90;;;;;;5017953;28;20467;-74
2021/03/29 08:37:05;;;;;;;1.95;0.80;;;13.40;99.90;;;;;;5017852;28;20054;-74
2021/03/29 08:39:32;;;;;;;3.17;0.60;;;13.40;99.90;;;;;;5018156;28;20053;-74
2021/03/29 08:42:01;;;;;;;2.85;0.70;;;13.40;99.90;;;;;;5017786;28;20053;-76
2021/03/29 08:44:28;;;;;;;4.68;0.80;;;13.40;99.90;;;;;;5017988;28;20050;-76
2021/03/29 08:46:55;;;;;;;3.97;2.15;;;13.40;99.90;;;;;;5017962;28;20068;-75
2021/03/29 08:49:21;;;;;;;4.40;1.05;;;13.40;99.90;;;;;;5017841;28;20046;-75
2021/03/29 08:51:48;;;;;;;3.63;0.65;;;13.40;99.90;;;;;;5017824;28;20061;-75
2021/03/29 08:54:15;;;;;;;6.07;0.77;;;13.40;99.90;;;;;;5017870;28;20403;-75
2021/03/29 08:56:43;;;;;;;2.70;0.80;;;13.40;99.90;;;;;;5017335;28;20049;-75
2021/03/29 08:59:11;;;;;;;0.82;0.50;;;13.50;99.90;;;;;;5017420;28;20056;-75
2021/03/29 09:01:39;;;;;;;0.73;0.30;;;13.50;99.90;;;;;;5017709;28;20493;-74
2021/03/29 09:04:06;;;;;;;2.28;0.50;;;13.40;99.90;;;;;;5017410;28;20136;-75
2021/03/29 09:06:33;;;;;;;2.03;0.50;;;13.40;99.90;;;;;;5017646;28;20057;-86
2021/03/29 09:08:59;;;;;;;2.47;0.35;;;13.40;99.90;;;;;;5017282;28;20042;-86
2021/03/29 09:11:26;;;;;;;4.38;0.40;;;13.50;99.90;;;;;;5016089;28;20049;-85
2021/03/29 09:13:54;;;;;;;2.67;0.30;;;13.50;99.90;;;;;;5017664;28;20104;-85
2021/03/29 09:16:24;;;;;;;0.90;0.38;;;13.50;99.90;;;;;;5017581;28;20050;-86
2021/03/29 09:18:50;;;;;;;1.30;0.55;;;13.50;99.90;;;;;;5018004;28;20041;-85
2021/03/29 09:21:24;;;;;;;2.53;0.30;;;13.60;99.90;;;;;;5017059;28;20050;-86
2021/03/29 09:23:50;;;;;;;2.22;0.20;;;13.60;99.90;;;;;;5017145;28;20049;-86
2021/03/29 09:26:24;;;;;;;1.50;0.40;;;13.60;99.90;;;;;;5017361;28;20054;-86
2021/03/29 09:28:53;;;;;;;0.65;0.30;;;13.60;99.90;;;;;;5017584;28;20413;-86
2021/03/29 09:31:22;;;;;;;1.27;0.35;;;13.60;99.90;;;;;;5016995;28;20054;-85
2021/03/29 09:33:50;;;;;;;1.83;0.45;;;13.70;99.90;;;;;;5016651;28;20057;-86
2021/03/29 09:36:19;;;;;;;0.85;0.30;;;13.70;99.90;;;;;;5016821;28;20119;-85
2021/03/29 09:38:48;;;;;;;1.20;0.28;;;13.80;99.90;;;;;;5016673;28;20513;-86
2021/03/29 09:41:15;;;;;;;0.40;0.30;;;14.00;99.90;;;;;;5016752;28;20073;-86
2021/03/29 09:43:42;;;;;;;1.10;0.20;;;14.00;99.90;;;;;;5016767;28;20049;-86
2021/03/29 09:46:09;;;;;;;1.75;0.20;;;14.00;99.90;;;;;;5016621;28;20054;-86
2021/03/29 09:48:35;;;;;;;2.38;0.30;;;14.00;99.90;;;;;;5016617;28;20064;-86
2021/03/29 09:51:03;;;;;;;2.20;0.50;;;14.00;99.90;;;;;;5016461;28;20054;-86
2021/03/29 09:53:33;;;;;;;1.08;0.57;;;14.00;99.90;;;;;;5016439;28;20058;-86
2021/03/29 09:56:02;;;;;;;1.45;0.30;;;14.10;99.90;;;;;;5016386;28;20054;-85
2021/03/29 09:58:30;;;;;;;1.08;0.68;;;14.30;99.90;;;;;;5016583;28;20049;-86
2021/03/29 10:00:58;;;;;;;1.70;0.32;;;14.40;99.90;;;;;;5016490;28;20081;-86
2021/03/29 10:03:25;;;;;;;2.50;0.57;;;14.40;99.90;;;;;;5016181;28;20068;-85
2021/03/29 10:05:52;;;;;;;2.30;0.60;;;14.40;99.90;;;;;;5016241;28;20054;-86
2021/03/29 10:08:30;;;;;;;1.88;0.75;;;14.40;99.90;;;;;;5016274;28;20054;-85
2021/03/29 10:11:04;;;;;;;2.70;0.47;;;14.30;99.90;;;;;;5016232;28;20064;-85
2021/03/29 10:13:35;;;;;;;2.55;0.40;;;14.30;99.90;;;;;;5016569;28;20050;-86
2021/03/29 10:16:22;;;;;;;1.33;0.45;;;14.30;99.90;;;;;;5016187;28;20509;-86
2021/03/29 10:19:01;;;;;;;5.63;0.60;;;14.40;99.90;;;;;;5031173;28;20133;-86
2021/03/29 10:21:27;;;;;;;3.30;0.60;;;14.50;99.90;;;;;;5035880;28;20454;-86
2021/03/29 10:24:13;;;;;;;1.75;0.55;;;14.70;99.90;;;;;;5036227;28;20131;-85
2021/03/29 10:26:40;;;;;;;4.50;1.13;;;14.80;99.90;;;;;;5035108;28;20063;-85
2021/03/29 10:29:07;;;;;;;1.45;1.33;;;14.80;99.90;;;;;;5035744;28;20053;-85
2021/03/29 10:31:36;;;;;;;2.05;0.47;;;14.80;99.90;;;;;;5035392;28;20367;-85
2021/03/29 10:34:02;;;;;;;5.97;0.63;;;14.80;99.90;;;;;;4997519;28;20108;-84
2021/03/29 10:36:29;;;;;;;6.15;0.47;;;14.80;99.90;;;;;;4996185;28;20054;-85
2021/03/29 10:38:56;;;;;;;1.08;0.43;;;14.90;99.90;;;;;;4996386;28;20046;-85
2021/03/29 10:41:24;;;;;;;0.90;0.38;;;15.00;99.90;;;;;;4996288;28;20054;-85
2021/03/29 10:43:51;;;;;;;1.10;0.45;;;15.00;99.90;;;;;;4995963;28;20050;-84
2021/03/29 10:46:17;;;;;;;1.48;0.60;;;15.00;99.90;;;;;;4995981;28;20433;-86
2021/03/29 10:48:44;;;;;;;3.28;0.60;;;15.00;99.90;;;;;;4995874;28;20065;-85
2021/03/29 10:51:10;;;;;;;3.60;1.33;;;15.00;99.90;;;;;;4995831;28;20053;-85
2021/03/29 10:53:37;;;;;;;3.63;0.57;;;15.00;99.90;;;;;;4995802;28;20526;-85
2021/03/29 10:56:04;;;;;;;1.73;0.73;;;15.00;99.90;;;;;;4996166;28;20053;-85
2021/03/29 10:58:33;;;;;;;1.33;0.50;;;14.90;99.90;;;;;;4995788;28;20459;-85
2021/03/29 11:00:59;;;;;;;6.28;1.30;;;14.80;99.90;;;;;;4995783;28;20489;-84
2021/03/29 11:03:26;;;;;;;3.10;1.23;;;14.80;99.90;;;;;;4995518;28;20069;-84
2021/03/29 11:05:53;;;;;;;4.07;1.00;;;14.90;99.90;;;;;;4995730;28;20137;-85
2021/03/29 11:08:19;;;;;;;1.70;0.77;;;14.90;99.90;;;;;;4995728;28;20062;-86
2021/03/29 11:10:46;;;;;;;3.30;1.00;;;14.90;99.90;;;;;;4994371;28;20072;-86
2021/03/29 11:13:12;;;;;;;2.03;1.20;;;15.00;99.90;;;;;;4995392;28;20117;-86
2021/03/29 11:15:40;;;;;;;0.82;0.60;;;14.90;99.90;;;;;;4995447;28;20046;-86
2021/03/29 11:18:07;;;;;;;2.47;1.30;;;14.90;99.90;;;;;;4995340;28;20464;-86
2021/03/29 11:20:34;;;;;;;7.43;2.42;;;14.90;99.90;;;;;;4995461;28;20471;-85
2021/03/29 11:23:01;;;;;;;5.00;1.63;;;14.90;99.90;;;;;;4995698;28;20050;-86
2021/03/29 11:25:28;;;;;;;3.40;1.17;;;15.00;99.90;;;;;;4995678;28;20438;-86
2021/03/29 11:27:54;;;;;;;3.78;1.00;;;14.90;99.90;;;;;;4995235;28;20069;-85
2021/03/29 11:30:22;;;;;;;3.92;1.05;;;15.00;99.90;;;;;;4995392;28;20429;-85
2021/03/29 11:32:49;;;;;;;6.95;1.20;;;15.00;99.90;;;;;;4994790;28;20061;-85
2021/03/29 11:35:16;;;;;;;4.40;0.75;;;15.20;99.90;;;;;;4995225;28;20106;-85
2021/03/29 11:37:42;;;;;;;2.33;0.68;;;15.30;99.90;;;;;;4994686;28;20052;-85
2021/03/29 11:40:11;;;;;;;1.35;0.60;;;15.40;99.90;;;;;;4995081;28;20058;-86
2021/03/29 11:42:39;;;;;;;1.48;0.98;;;15.40;99.90;;;;;;4995579;28;20066;-86
2021/03/29 11:45:07;;;;;;;8.15;1.27;;;15.30;99.90;;;;;;4995103;28;20446;-86
2021/03/29 11:47:33;;;;;;;5.20;1.02;;;15.20;99.90;;;;;;4995464;28;20431;-86
2021/03/29 11:50:01;;;;;;;3.22;1.10;;;15.20;99.90;;;;;;4995188;28;20061;-85
2021/03/29 11:52:27;;;;;;;4.88;1.10;;;15.20;99.90;;;;;;5001307;28;20520;-85
2021/03/29 11:54:54;;;;;;;3.45;1.42;;;15.20;99.90;;;;;;5034741;28;20049;-86
2021/03/29 11:57:20;;;;;;;6.50;1.13;;;15.20;99.90;;;;;;5034497;28;20060;-85
2021/03/29 11:59:50;;;;;;;3.97;1.52;;;15.20;99.90;;;;;;5034336;28;20416;-86
2021/03/29 12:02:23;;;;;;;4.40;1.10;;;15.00;99.90;;;;;;5025035;28;20054;-86
2021/03/29 12:04:53;;;;;;;5.65;1.48;;;15.00;99.90;;;;;;4995066;28;20050;-86
2021/03/29 12:07:27;;;;;;;7.60;1.13;;;15.00;99.90;;;;;;4995081;28;20050;-85
2021/03/29 12:11:48;;;;;;;4.70;0.73;;;15.00;99.90;;;;;;4994864;28;20471;-85
2021/03/29 12:12:40;;;;;;;3.83;0.90;;;15.00;99.90;;;;;;4994995;28;20085;-88
2021/03/29 12:15:11;;;;;;;3.35;0.93;;;15.00;99.90;;;;;;4998839;28;20047;-89
2021/03/29 12:17:39;;;;;;;7.00;1.13;;;15.00;99.90;;;;;;4998463;28;20058;-86
2021/03/29 12:20:07;;;;;;;4.68;0.88;;;;;;;;;;4998266;28;20535;-87
2021/03/29 12:22:34;;;;;;;3.03;1.13;;;15.20;99.90;;;;;;4997228;28;20366;-87
2021/03/29 12:25:01;;;;;;;2.60;1.13;;;15.20;99.90;;;;;;4997514;28;20051;-91
2021/03/29 12:27:28;;;;;;;4.03;2.08;;;15.30;99.90;;;;;;4996522;28;20054;-89
2021/03/29 12:29:55;;;;;;;3.25;0.98;;;;;;;;;;4997284;28;20060;-88
2021/03/29 12:32:21;;;;;;;7.35;2.03;;;;;;;;;;4994297;28;20150;-88
2021/03/29 12:34:50;;;;;;;3.70;1.20;;;15.20;99.90;;;;;;4994735;28;20058;-80
2021/03/29 12:37:18;;;;;;;4.22;1.13;;;15.30;99.90;;;;;;4994609;28;20050;-84
2021/03/29 12:39:47;;;;;;;5.07;1.33;;;15.20;99.90;;;;;;4994608;28;20174;-85
2021/03/29 12:42:16;;;;;;;6.97;1.25;;;15.20;99.90;;;;;;4994418;28;20054;-84
2021/03/29 12:44:42;;;;;;;6.10;1.58;;;15.20;99.90;;;;;;4994737;28;20097;-85
2021/03/29 12:47:11;;;;;;;6.22;1.42;;;15.20;99.90;;;;;;4993783;28;20054;-84
2021/03/29 12:49:38;;;;;;;7.90;1.67;;;15.30;99.90;;;;;;4997156;28;20136;-85
2021/03/29 12:52:05;;;;;;;6.13;1.80;;;15.30;99.90;;;;;;4998202;28;20065;-85
2021/03/29 12:54:35;;;;;;;6.97;1.40;;;15.30;99.90;;;;;;4998472;28;20504;-84